createdAt,value
2016-05-28T00:00:01.970Z,0
2016-05-28T00:01:01.785Z,0
2016-05-28T00:02:01.757Z,0
2016-05-28T00:03:01.994Z,0
2016-05-28T00:04:15.309Z,0
2016-05-28T00:05:01.640Z,0
2016-05-28T00:06:01.783Z,0
2016-05-28T00:07:01.629Z,0
2016-05-28T00:08:01.727Z,0
2016-05-28T00:09:01.870Z,0
2016-05-28T00:10:01.637Z,0
2016-05-28T00:11:01.454Z,0
2016-05-28T00:12:01.534Z,0
2016-05-28T00:13:01.818Z,0
2016-05-28T00:14:01.649Z,0
2016-05-28T00:15:01.776Z,0
2016-05-28T00:16:01.482Z,0
2016-05-28T00:17:01.453Z,0
2016-05-28T00:18:01.440Z,0
2016-05-28T00:19:01.475Z,0
2016-05-28T00:20:01.571Z,0
2016-05-28T00:21:01.652Z,0
2016-05-28T00:22:01.201Z,0
2016-05-28T00:23:01.267Z,0
2016-05-28T00:24:01.270Z,0
2016-05-28T00:25:01.366Z,0
2016-05-28T00:26:01.274Z,0
2016-05-28T00:27:01.481Z,0
2016-05-28T00:28:01.249Z,0
2016-05-28T00:29:01.189Z,0
2016-05-28T00:30:01.130Z,0
2016-05-28T00:31:01.163Z,0
2016-05-28T00:32:00.853Z,0
2016-05-28T00:33:01.060Z,0
2016-05-28T00:34:00.921Z,0
2016-05-28T00:35:01.424Z,0
2016-05-28T00:36:01.146Z,0
2016-05-28T00:37:01.258Z,0
2016-05-28T00:38:01.057Z,0
2016-05-28T00:39:01.076Z,0
2016-05-28T00:40:01.093Z,0
2016-05-28T00:41:01.002Z,0
2016-05-28T00:42:01.209Z,0
2016-05-28T00:43:01.227Z,0
2016-05-28T00:44:01.042Z,0
2016-05-28T00:45:01.326Z,0
2016-05-28T00:46:00.985Z,0
2016-05-28T00:47:01.019Z,0
2016-05-28T00:48:00.850Z,0
2016-05-28T00:49:01.290Z,0
2016-05-28T00:50:00.901Z,0
2016-05-28T00:51:01.029Z,0
2016-05-28T00:52:01.345Z,0
2016-05-28T00:53:00.894Z,0
2016-05-28T00:54:01.194Z,0
2016-05-28T00:55:01.447Z,0
2016-05-28T00:56:00.339Z,0
2016-05-28T00:57:01.125Z,0
2016-05-28T00:58:01.314Z,0
2016-05-28T00:59:00.582Z,0
2016-05-28T01:00:00.539Z,0
2016-05-28T01:01:01.244Z,0
2016-05-28T01:02:01.465Z,0
2016-05-28T01:03:01.155Z,0
2016-05-28T01:04:01.189Z,0
2016-05-28T01:05:00.567Z,0
2016-05-28T01:06:00.741Z,0
2016-05-28T01:07:00.869Z,0
2016-05-28T01:08:00.997Z,0
2016-05-28T01:09:00.938Z,0
2016-05-28T01:10:00.175Z,0
2016-05-28T01:11:00.520Z,0
2016-05-28T01:12:00.164Z,0
2016-05-28T01:13:00.542Z,0
2016-05-28T01:14:00.170Z,0
2016-05-28T01:15:00.453Z,0
2016-05-28T01:16:00.269Z,0
2016-05-28T01:17:00.224Z,0
2016-05-28T01:18:00.212Z,0
2016-05-28T01:19:00.433Z,0
2016-05-28T01:20:00.967Z,0
2016-05-28T01:21:00.423Z,0
2016-05-28T01:22:00.159Z,0
2016-05-28T01:23:00.178Z,0
2016-05-28T01:23:59.993Z,0
2016-05-28T01:25:00.027Z,0
2016-05-28T01:26:00.389Z,0
2016-05-28T01:27:00.547Z,0
2016-05-28T01:28:00.036Z,0
2016-05-28T01:28:59.711Z,0
2016-05-28T01:30:00.025Z,0
2016-05-28T01:31:00.278Z,0
2016-05-28T01:32:00.030Z,0
2016-05-28T01:33:00.283Z,0
2016-05-28T01:34:00.052Z,0
2016-05-28T01:34:59.991Z,0
2016-05-28T01:35:59.916Z,0
2016-05-28T01:37:00.028Z,0
2016-05-28T01:38:00.015Z,0
2016-05-28T01:39:00.002Z,0
2016-05-28T01:39:59.910Z,0
2016-05-28T01:40:59.727Z,0
2016-05-28T01:41:59.948Z,0
2016-05-28T01:42:59.982Z,0
2016-05-28T01:43:59.766Z,0
2016-05-28T01:44:59.737Z,0
2016-05-28T01:45:59.568Z,0
2016-05-28T01:47:13.305Z,0
2016-05-28T01:47:59.526Z,0
2016-05-28T01:48:59.607Z,0
2016-05-28T01:49:59.548Z,0
2016-05-28T01:50:59.847Z,0
2016-05-28T01:51:59.600Z,0
2016-05-28T01:52:59.664Z,0
2016-05-28T01:53:59.527Z,0
2016-05-28T01:54:59.701Z,0
2016-05-28T01:55:59.501Z,0
2016-05-28T01:56:59.567Z,0
2016-05-28T01:57:59.381Z,0
2016-05-28T01:58:59.384Z,0
2016-05-28T01:59:59.544Z,0
2016-05-28T02:00:59.374Z,0
2016-05-28T02:01:59.111Z,0
2016-05-28T02:02:59.519Z,0
2016-05-28T02:03:59.397Z,0
2016-05-28T02:04:59.760Z,0
2016-05-28T02:05:59.263Z,0
2016-05-28T02:06:59.563Z,0
2016-05-28T02:07:59.596Z,0
2016-05-28T02:08:59.646Z,0
2016-05-28T02:09:59.133Z,0
2016-05-28T02:10:59.042Z,0
2016-05-28T02:11:59.029Z,0
2016-05-28T02:12:59.359Z,0
2016-05-28T02:13:59.018Z,0
2016-05-28T02:14:59.334Z,0
2016-05-28T02:15:59.040Z,0
2016-05-28T02:16:59.042Z,0
2016-05-28T02:17:58.967Z,0
2016-05-28T02:18:59.328Z,0
2016-05-28T02:19:59.082Z,0
2016-05-28T02:21:00.053Z,0
2016-05-28T02:21:59.617Z,0
2016-05-28T02:23:00.246Z,0
2016-05-28T02:23:58.920Z,0
2016-05-28T02:24:59.501Z,0
2016-05-28T02:25:59.879Z,0
2016-05-28T02:26:59.147Z,0
2016-05-28T02:27:58.837Z,0
2016-05-28T02:28:59.747Z,0
2016-05-28T02:30:00.233Z,0
2016-05-28T02:30:58.908Z,0
2016-05-28T02:31:59.583Z,0
2016-05-28T02:32:59.975Z,0
2016-05-28T02:33:59.463Z,0
2016-05-28T02:34:59.746Z,0
2016-05-28T02:35:58.608Z,0
2016-05-28T02:36:59.237Z,0
2016-05-28T02:37:59.192Z,0
2016-05-28T02:38:59.102Z,0
2016-05-28T02:39:59.307Z,0
2016-05-28T02:40:59.482Z,0
2016-05-28T02:41:59.515Z,0
2016-05-28T02:42:58.988Z,0
2016-05-28T02:43:58.880Z,0
2016-05-28T02:44:58.523Z,0
2016-05-28T02:45:58.918Z,0
2016-05-28T02:47:00.795Z,0
2016-05-28T02:47:58.298Z,0
2016-05-28T02:48:59.284Z,0
2016-05-28T02:49:59.615Z,0
2016-05-28T02:50:58.618Z,0
2016-05-28T02:51:58.887Z,0
2016-05-28T02:52:58.421Z,0
2016-05-28T02:53:58.766Z,0
2016-05-28T02:54:58.878Z,0
2016-05-28T02:55:58.444Z,0
2016-05-28T02:56:59.806Z,0
2016-05-28T02:57:57.730Z,0
2016-05-28T02:58:57.998Z,0
2016-05-28T02:59:58.064Z,4
2016-05-28T03:00:58.457Z,4
2016-05-28T03:01:58.257Z,0
2016-05-28T03:02:58.244Z,0
2016-05-28T03:03:57.950Z,0
2016-05-28T03:04:59.655Z,0
2016-05-28T03:05:58.392Z,4
2016-05-28T03:06:58.207Z,4
2016-05-28T03:07:58.352Z,4
2016-05-28T03:08:58.213Z,0
2016-05-28T03:09:57.841Z,0
2016-05-28T03:10:58.500Z,4
2016-05-28T03:11:57.644Z,4
2016-05-28T03:12:57.833Z,4
2016-05-28T03:13:58.055Z,4
2016-05-28T03:14:57.729Z,4
2016-05-28T03:15:57.888Z,4
2016-05-28T03:16:57.625Z,4
2016-05-28T03:17:57.550Z,4
2016-05-28T03:18:57.537Z,4
2016-05-28T03:19:57.821Z,4
2016-05-28T03:20:57.745Z,8
2016-05-28T03:21:57.435Z,8
2016-05-28T03:22:57.485Z,8
2016-05-28T03:23:57.441Z,8
2016-05-28T03:24:57.756Z,12
2016-05-28T03:25:57.650Z,12
2016-05-28T03:26:57.448Z,12
2016-05-28T03:27:57.201Z,12
2016-05-28T03:28:57.314Z,16
2016-05-28T03:29:57.286Z,16
2016-05-28T03:30:57.303Z,16
2016-05-28T03:31:57.541Z,16
2016-05-28T03:32:57.481Z,16
2016-05-28T03:33:57.217Z,20
2016-05-28T03:34:57.283Z,20
2016-05-28T03:35:57.020Z,20
2016-05-28T03:36:57.147Z,24
2016-05-28T03:37:57.135Z,28
2016-05-28T03:38:57.449Z,28
2016-05-28T03:39:57.093Z,28
2016-05-28T03:40:56.987Z,32
2016-05-28T03:41:57.068Z,36
2016-05-28T03:42:56.991Z,36
2016-05-28T03:43:57.261Z,40
2016-05-28T03:44:57.388Z,44
2016-05-28T03:45:56.985Z,40
2016-05-28T03:46:56.893Z,44
2016-05-28T03:47:57.224Z,48
2016-05-28T03:48:56.915Z,48
2016-05-28T03:49:57.402Z,52
2016-05-28T03:50:57.123Z,52
2016-05-28T03:51:56.845Z,52
2016-05-28T03:52:56.863Z,52
2016-05-28T03:53:56.726Z,56
2016-05-28T03:54:56.571Z,60
2016-05-28T03:55:56.933Z,60
2016-05-28T03:56:56.983Z,64
2016-05-28T03:57:56.532Z,64
2016-05-28T03:58:56.722Z,64
2016-05-28T03:59:56.303Z,64
2016-05-28T04:00:56.853Z,68
2016-05-28T04:01:56.512Z,68
2016-05-28T04:02:57.078Z,68
2016-05-28T04:03:56.611Z,72
2016-05-28T04:04:57.005Z,72
2016-05-28T04:05:56.539Z,72
2016-05-28T04:06:56.494Z,76
2016-05-28T04:07:56.855Z,76
2016-05-28T04:08:56.406Z,80
2016-05-28T04:09:56.439Z,80
2016-05-28T04:10:56.271Z,80
2016-05-28T04:11:56.367Z,84
2016-05-28T04:12:56.369Z,84
2016-05-28T04:13:56.716Z,84
2016-05-28T04:14:56.703Z,88
2016-05-28T04:15:56.316Z,92
2016-05-28T04:16:56.255Z,96
2016-05-28T04:17:56.211Z,100
2016-05-28T04:18:56.105Z,100
2016-05-28T04:19:56.404Z,104
2016-05-28T04:20:56.594Z,112
2016-05-28T04:21:56.159Z,112
2016-05-28T04:22:55.974Z,116
2016-05-28T04:23:56.040Z,120
2016-05-28T04:24:56.121Z,124
2016-05-28T04:25:56.201Z,124
2016-05-28T04:26:56.235Z,128
2016-05-28T04:27:56.066Z,132
2016-05-28T04:28:55.928Z,132
2016-05-28T04:29:55.993Z,136
2016-05-28T04:30:56.058Z,136
2016-05-28T04:31:56.217Z,140
2016-05-28T04:32:55.939Z,140
2016-05-28T04:33:55.611Z,140
2016-05-28T04:34:56.335Z,140
2016-05-28T04:35:55.913Z,144
2016-05-28T04:36:55.775Z,144
2016-05-28T04:37:56.078Z,148
2016-05-28T04:38:56.096Z,148
2016-05-28T04:39:55.814Z,152
2016-05-28T04:40:55.911Z,152
2016-05-28T04:41:55.586Z,152
2016-05-28T04:42:55.775Z,152
2016-05-28T04:43:55.857Z,152
2016-05-28T04:44:55.985Z,152
2016-05-28T04:45:55.691Z,152
2016-05-28T04:46:55.552Z,156
2016-05-28T04:47:55.555Z,156
2016-05-28T04:48:55.621Z,156
2016-05-28T04:49:56.060Z,156
2016-05-28T04:50:55.688Z,156
2016-05-28T04:51:55.379Z,160
2016-05-28T04:52:55.271Z,160
2016-05-28T04:53:55.477Z,156
2016-05-28T04:54:55.496Z,160
2016-05-28T04:55:55.717Z,160
2016-05-28T04:56:55.673Z,164
2016-05-28T04:57:55.253Z,168
2016-05-28T04:58:55.443Z,164
2016-05-28T04:59:55.368Z,168
2016-05-28T05:00:55.403Z,172
2016-05-28T05:01:55.764Z,168
2016-05-28T05:02:55.845Z,168
2016-05-28T05:03:55.239Z,168
2016-05-28T05:04:55.194Z,168
2016-05-28T05:05:55.306Z,172
2016-05-28T05:06:55.121Z,176
2016-05-28T05:07:55.061Z,176
2016-05-28T05:08:55.574Z,180
2016-05-28T05:09:54.695Z,180
2016-05-28T05:10:55.222Z,184
2016-05-28T05:11:55.218Z,180
2016-05-28T05:12:55.432Z,184
2016-05-28T05:13:55.095Z,184
2016-05-28T05:14:55.263Z,184
2016-05-28T05:15:55.102Z,184
2016-05-28T05:16:54.973Z,184
2016-05-28T05:17:55.235Z,184
2016-05-28T05:18:54.948Z,184
2016-05-28T05:19:55.453Z,188
2016-05-28T05:20:55.458Z,188
2016-05-28T05:21:55.605Z,192
2016-05-28T05:22:55.893Z,192
2016-05-28T05:23:55.803Z,196
2016-05-28T05:25:08.592Z,200
2016-05-28T05:25:55.514Z,204
2016-05-28T05:26:56.252Z,208
2016-05-28T05:28:08.681Z,212
2016-05-28T05:29:08.684Z,220
2016-05-28T05:29:55.950Z,224
2016-05-28T05:30:55.390Z,224
2016-05-28T05:31:55.535Z,232
2016-05-28T05:32:56.147Z,240
2016-05-28T05:33:55.369Z,248
2016-05-28T05:34:55.324Z,252
2016-05-28T05:35:55.326Z,256
2016-05-28T05:36:55.830Z,256
2016-05-28T05:37:55.363Z,260
2016-05-28T05:38:56.210Z,264
2016-05-28T05:39:55.415Z,276
2016-05-28T05:40:55.715Z,288
2016-05-28T05:41:55.328Z,304
2016-05-28T05:42:56.596Z,316
2016-05-28T05:43:54.583Z,324
2016-05-28T05:44:54.867Z,336
2016-05-28T05:45:55.417Z,344
2016-05-28T05:46:54.920Z,352
2016-05-28T05:47:54.797Z,360
2016-05-28T05:48:55.221Z,372
2016-05-28T05:50:08.758Z,380
2016-05-28T05:50:55.258Z,384
2016-05-28T05:51:54.948Z,392
2016-05-28T05:52:54.858Z,396
2016-05-28T05:53:54.844Z,404
2016-05-28T05:54:54.534Z,404
2016-05-28T05:55:54.490Z,412
2016-05-28T05:56:55.306Z,412
2016-05-28T05:57:54.808Z,416
2016-05-28T05:58:54.733Z,416
2016-05-28T05:59:54.548Z,420
2016-05-28T06:00:54.707Z,420
2016-05-28T06:01:54.819Z,412
2016-05-28T06:02:54.759Z,404
2016-05-28T06:03:54.559Z,392
2016-05-28T06:04:54.936Z,380
2016-05-28T06:05:55.580Z,372
2016-05-28T06:06:54.660Z,360
2016-05-28T06:07:54.522Z,356
2016-05-28T06:08:54.837Z,356
2016-05-28T06:09:54.669Z,360
2016-05-28T06:10:54.702Z,368
2016-05-28T06:11:55.017Z,376
2016-05-28T06:12:54.504Z,376
2016-05-28T06:13:54.835Z,372
2016-05-28T06:14:55.135Z,368
2016-05-28T06:15:54.528Z,360
2016-05-28T06:16:54.437Z,356
2016-05-28T06:17:54.253Z,360
2016-05-28T06:18:54.631Z,368
2016-05-28T06:19:54.711Z,368
2016-05-28T06:20:54.933Z,376
2016-05-28T06:21:54.670Z,376
2016-05-28T06:22:54.281Z,372
2016-05-28T06:23:54.784Z,372
2016-05-28T06:24:53.756Z,376
2016-05-28T06:25:53.711Z,384
2016-05-28T06:26:54.136Z,384
2016-05-28T06:27:53.639Z,372
2016-05-28T06:28:53.672Z,376
2016-05-28T06:29:53.863Z,368
2016-05-28T06:30:53.616Z,364
2016-05-28T06:31:53.446Z,348
2016-05-28T06:32:54.636Z,336
2016-05-28T06:33:53.374Z,328
2016-05-28T06:34:55.549Z,312
2016-05-28T06:35:53.504Z,300
2016-05-28T06:36:53.444Z,296
2016-05-28T06:37:53.446Z,300
2016-05-28T06:38:53.746Z,292
2016-05-28T06:39:53.437Z,308
2016-05-28T06:40:53.080Z,284
2016-05-28T06:41:53.348Z,276
2016-05-28T06:42:53.726Z,288
2016-05-28T06:43:53.291Z,292
2016-05-28T06:44:53.387Z,352
2016-05-28T06:45:53.281Z,428
2016-05-28T06:46:53.158Z,428
2016-05-28T06:47:53.521Z,396
2016-05-28T06:48:53.211Z,416
2016-05-28T06:49:53.057Z,308
2016-05-28T06:50:53.153Z,388
2016-05-28T06:51:53.172Z,336
2016-05-28T06:52:53.190Z,360
2016-05-28T06:53:53.052Z,424
2016-05-28T06:54:52.993Z,424
2016-05-28T06:55:52.980Z,424
2016-05-28T06:56:53.404Z,424
2016-05-28T06:57:53.064Z,420
2016-05-28T06:58:52.864Z,428
2016-05-28T06:59:53.241Z,424
2016-05-28T07:00:53.008Z,420
2016-05-28T07:01:53.027Z,428
2016-05-28T07:02:53.061Z,432
2016-05-28T07:03:52.594Z,436
2016-05-28T07:04:53.254Z,436
2016-05-28T07:05:53.132Z,440
2016-05-28T07:06:52.587Z,444
2016-05-28T07:07:53.293Z,444
2016-05-28T07:08:53.062Z,444
2016-05-28T07:09:52.815Z,444
2016-05-28T07:10:52.770Z,448
2016-05-28T07:11:53.007Z,444
2016-05-28T07:12:52.587Z,444
2016-05-28T07:13:52.731Z,452
2016-05-28T07:14:52.921Z,452
2016-05-28T07:15:52.689Z,448
2016-05-28T07:16:52.646Z,452
2016-05-28T07:17:52.882Z,456
2016-05-28T07:18:52.448Z,456
2016-05-28T07:19:52.637Z,460
2016-05-28T07:20:52.812Z,460
2016-05-28T07:21:52.627Z,460
2016-05-28T07:22:52.490Z,468
2016-05-28T07:23:52.633Z,468
2016-05-28T07:24:52.495Z,472
2016-05-28T07:25:52.483Z,476
2016-05-28T07:26:52.688Z,476
2016-05-28T07:27:52.738Z,480
2016-05-28T07:28:52.411Z,484
2016-05-28T07:29:52.540Z,484
2016-05-28T07:30:52.402Z,488
2016-05-28T07:31:52.326Z,496
2016-05-28T07:32:52.689Z,496
2016-05-28T07:33:52.333Z,496
2016-05-28T07:34:52.678Z,508
2016-05-28T07:35:52.555Z,504
2016-05-28T07:36:53.387Z,508
2016-05-28T07:37:52.311Z,512
2016-05-28T07:38:53.032Z,520
2016-05-28T07:39:52.238Z,524
2016-05-28T07:40:51.773Z,524
2016-05-28T07:42:05.887Z,532
2016-05-28T07:42:52.496Z,524
2016-05-28T07:43:52.562Z,532
2016-05-28T07:44:52.362Z,528
2016-05-28T07:45:52.051Z,524
2016-05-28T07:46:52.132Z,524
2016-05-28T07:47:51.884Z,528
2016-05-28T07:48:52.450Z,532
2016-05-28T07:49:52.140Z,532
2016-05-28T07:50:52.159Z,532
2016-05-28T07:51:51.989Z,536
2016-05-28T07:52:51.945Z,536
2016-05-28T07:53:52.058Z,544
2016-05-28T07:54:53.325Z,552
2016-05-28T07:55:51.844Z,556
2016-05-28T07:56:52.097Z,556
2016-05-28T07:57:51.865Z,560
2016-05-28T07:58:51.962Z,564
2016-05-28T07:59:51.839Z,560
2016-05-28T08:00:51.826Z,560
2016-05-28T08:01:51.767Z,560
2016-05-28T08:02:51.957Z,560
2016-05-28T08:03:51.694Z,560
2016-05-28T08:04:52.008Z,564
2016-05-28T08:05:51.621Z,564
2016-05-28T08:06:52.030Z,568
2016-05-28T08:07:51.657Z,572
2016-05-28T08:08:51.473Z,572
2016-05-28T08:09:51.663Z,572
2016-05-28T08:10:51.416Z,572
2016-05-28T08:11:51.418Z,572
2016-05-28T08:12:54.421Z,568
2016-05-28T08:13:51.205Z,568
2016-05-28T08:14:51.739Z,564
2016-05-28T08:15:51.413Z,560
2016-05-28T08:16:51.807Z,484
2016-05-28T08:17:51.387Z,532
2016-05-28T08:18:52.390Z,528
2016-05-28T08:19:51.424Z,548
2016-05-28T08:20:51.567Z,568
2016-05-28T08:21:51.212Z,572
2016-05-28T08:22:51.651Z,572
2016-05-28T08:23:51.263Z,572
2016-05-28T08:24:51.375Z,576
2016-05-28T08:25:51.253Z,572
2016-05-28T08:26:51.458Z,568
2016-05-28T08:27:51.228Z,572
2016-05-28T08:28:51.308Z,568
2016-05-28T08:29:51.217Z,568
2016-05-28T08:30:51.376Z,568
2016-05-28T08:31:51.128Z,568
2016-05-28T08:32:51.803Z,576
2016-05-28T08:33:50.930Z,580
2016-05-28T08:34:51.058Z,584
2016-05-28T08:35:50.983Z,584
2016-05-28T08:36:51.282Z,588
2016-05-28T08:37:51.379Z,584
2016-05-28T08:38:51.304Z,580
2016-05-28T08:39:50.807Z,580
2016-05-28T08:40:50.966Z,588
2016-05-28T08:41:50.796Z,584
2016-05-28T08:42:51.143Z,584
2016-05-28T08:43:50.957Z,588
2016-05-28T08:44:51.195Z,588
2016-05-28T08:45:50.807Z,588
2016-05-28T08:46:50.841Z,588
2016-05-28T08:47:50.781Z,584
2016-05-28T08:48:51.065Z,588
2016-05-28T08:49:50.787Z,588
2016-05-28T08:50:51.040Z,600
2016-05-28T08:51:50.729Z,600
2016-05-28T08:52:51.247Z,604
2016-05-28T08:53:50.782Z,608
2016-05-28T08:54:50.987Z,608
2016-05-28T08:55:51.162Z,616
2016-05-28T08:56:50.743Z,620
2016-05-28T08:57:50.667Z,620
2016-05-28T08:58:50.638Z,632
2016-05-28T08:59:50.641Z,644
2016-05-28T09:00:50.566Z,648
2016-05-28T09:01:50.631Z,652
2016-05-28T09:02:50.789Z,664
2016-05-28T09:03:50.325Z,668
2016-05-28T09:04:50.217Z,672
2016-05-28T09:05:50.752Z,676
2016-05-28T09:06:50.410Z,700
2016-05-28T09:07:50.475Z,724
2016-05-28T09:08:50.696Z,724
2016-05-28T09:09:50.418Z,724
2016-05-28T09:10:50.327Z,720
2016-05-28T09:11:51.471Z,724
2016-05-28T09:12:50.566Z,732
2016-05-28T09:13:50.241Z,740
2016-05-28T09:14:50.369Z,756
2016-05-28T09:15:50.372Z,752
2016-05-28T09:16:50.265Z,736
2016-05-28T09:17:50.221Z,736
2016-05-28T09:18:50.224Z,732
2016-05-28T09:19:51.710Z,744
2016-05-28T09:20:50.385Z,764
2016-05-28T09:21:49.997Z,776
2016-05-28T09:22:50.141Z,784
2016-05-28T09:23:50.018Z,812
2016-05-28T09:24:50.381Z,828
2016-05-28T09:25:50.071Z,816
2016-05-28T09:26:50.277Z,792
2016-05-28T09:27:50.061Z,776
2016-05-28T09:28:50.063Z,780
2016-05-28T09:29:49.831Z,768
2016-05-28T09:30:50.100Z,752
2016-05-28T09:31:49.884Z,784
2016-05-28T09:32:50.200Z,816
2016-05-28T09:33:49.654Z,848
2016-05-28T09:34:50.219Z,888
2016-05-28T09:35:50.050Z,948
2016-05-28T09:36:50.756Z,976
2016-05-28T09:37:50.024Z,852
2016-05-28T09:38:50.136Z,876
2016-05-28T09:39:49.874Z,836
2016-05-28T09:40:49.766Z,832
2016-05-28T09:41:49.614Z,924
2016-05-28T09:42:50.257Z,1092
2016-05-28T09:43:49.666Z,1040
2016-05-28T09:44:49.699Z,912
2016-05-28T09:45:49.718Z,1032
2016-05-28T09:46:49.471Z,1028
2016-05-28T09:47:49.505Z,928
2016-05-28T09:48:49.930Z,876
2016-05-28T09:49:49.666Z,924
2016-05-28T09:50:49.887Z,980
2016-05-28T09:51:53.859Z,940
2016-05-28T09:52:51.674Z,832
2016-05-28T09:53:49.426Z,660
2016-05-28T09:54:49.773Z,628
2016-05-28T09:55:49.589Z,632
2016-05-28T09:56:55.514Z,664
2016-05-28T09:57:49.469Z,664
2016-05-28T09:58:51.815Z,664
2016-05-28T09:59:52.256Z,676
2016-05-28T10:00:49.384Z,716
2016-05-28T10:01:52.636Z,756
2016-05-28T10:02:49.450Z,608
2016-05-28T10:03:49.391Z,588
2016-05-28T10:04:50.020Z,596
2016-05-28T10:05:49.319Z,648
2016-05-28T10:06:55.290Z,696
2016-05-28T10:08:03.075Z,860
2016-05-28T10:08:49.717Z,876
2016-05-28T10:09:49.517Z,812
2016-05-28T10:11:02.786Z,840
2016-05-28T10:11:49.086Z,796
2016-05-28T10:12:49.869Z,768
2016-05-28T10:13:49.168Z,712
2016-05-28T10:14:49.687Z,680
2016-05-28T10:15:48.940Z,688
2016-05-28T10:16:54.583Z,708
2016-05-28T10:17:49.727Z,720
2016-05-28T10:18:49.619Z,728
2016-05-28T10:19:50.185Z,736
2016-05-28T10:20:49.718Z,744
2016-05-28T10:21:52.909Z,736
2016-05-28T10:22:49.568Z,752
2016-05-28T10:23:48.977Z,780
2016-05-28T10:24:49.651Z,800
2016-05-28T10:25:49.278Z,984
2016-05-28T10:26:53.423Z,832
2016-05-28T10:27:48.925Z,820
2016-05-28T10:28:48.896Z,832
2016-05-28T10:29:49.195Z,880
2016-05-28T10:30:49.620Z,840
2016-05-28T10:31:49.545Z,844
2016-05-28T10:32:49.095Z,936
2016-05-28T10:33:48.675Z,984
2016-05-28T10:34:48.897Z,1032
2016-05-28T10:35:49.025Z,1140
2016-05-28T10:37:02.636Z,1352
2016-05-28T10:37:49.467Z,1412
2016-05-28T10:38:49.469Z,1528
2016-05-28T10:39:48.925Z,1564
2016-05-28T10:40:48.850Z,1544
2016-05-28T10:41:51.650Z,1552
2016-05-28T10:42:50.027Z,1640
2016-05-28T10:43:48.765Z,1676
2016-05-28T10:44:49.627Z,1720
2016-05-28T10:45:48.707Z,1712
2016-05-28T10:46:48.898Z,1676
2016-05-28T10:48:02.260Z,1720
2016-05-28T10:48:48.746Z,1768
2016-05-28T10:49:48.921Z,1692
2016-05-28T10:50:50.596Z,1456
2016-05-28T10:51:48.599Z,1424
2016-05-28T10:52:49.226Z,1476
2016-05-28T10:53:48.213Z,1468
2016-05-28T10:54:48.404Z,1544
2016-05-28T10:55:49.844Z,1644
2016-05-28T10:56:49.065Z,1780
2016-05-28T10:58:02.490Z,1820
2016-05-28T10:58:48.477Z,1752
2016-05-28T11:00:03.948Z,1676
2016-05-28T11:00:48.670Z,1588
2016-05-28T11:01:48.484Z,1552
2016-05-28T11:02:48.567Z,1528
2016-05-28T11:03:48.756Z,1348
2016-05-28T11:04:50.384Z,1324
2016-05-28T11:06:01.949Z,1288
2016-05-28T11:07:02.561Z,1216
2016-05-28T11:08:02.298Z,1304
2016-05-28T11:08:48.613Z,1128
2016-05-28T11:09:47.975Z,1080
2016-05-28T11:10:48.213Z,1060
2016-05-28T11:11:48.433Z,1136
2016-05-28T11:12:47.952Z,1176
2016-05-28T11:13:49.377Z,1132
2016-05-28T11:14:48.505Z,1160
2016-05-28T11:15:49.929Z,1292
2016-05-28T11:16:48.057Z,1640
2016-05-28T11:17:47.466Z,1904
2016-05-28T11:18:48.281Z,1944
2016-05-28T11:20:02.268Z,1688
2016-05-28T11:21:48.071Z,1444
2016-05-28T11:22:48.433Z,1500
2016-05-28T11:23:49.543Z,1724
2016-05-28T11:24:48.718Z,2240
2016-05-28T11:25:49.159Z,2476
2016-05-28T11:26:48.537Z,2100
2016-05-28T11:28:01.898Z,2116
2016-05-28T11:28:48.745Z,2056
2016-05-28T11:29:48.607Z,1964
2016-05-28T11:31:01.454Z,1916
2016-05-28T11:31:47.909Z,1928
2016-05-28T11:32:47.928Z,2032
2016-05-28T11:33:47.353Z,1936
2016-05-28T11:34:48.934Z,2072
2016-05-28T11:35:47.733Z,2004
2016-05-28T11:36:48.360Z,1944
2016-05-28T11:37:50.081Z,2144
2016-05-28T11:38:48.272Z,2344
2016-05-28T11:39:47.775Z,2424
2016-05-28T11:40:48.949Z,2344
2016-05-28T11:41:48.703Z,2296
2016-05-28T11:42:48.580Z,2252
2016-05-28T11:44:02.113Z,2320
2016-05-28T11:44:48.397Z,2360
2016-05-28T11:45:47.885Z,2368
2016-05-28T11:46:48.653Z,2336
2016-05-28T11:47:48.531Z,2344
2016-05-28T11:48:49.955Z,2356
2016-05-28T11:49:50.020Z,2568
2016-05-28T11:50:48.242Z,3412
2016-05-28T11:51:47.932Z,5096
2016-05-28T11:52:48.935Z,15360
2016-05-28T11:53:48.234Z,31360
2016-05-28T11:54:48.487Z,37376
2016-05-28T11:55:48.427Z,36384
2016-05-28T11:56:47.352Z,36864
2016-05-28T11:58:47.873Z,35264
2016-05-28T11:59:48.250Z,21376
2016-05-28T12:00:47.566Z,23840
2016-05-28T12:01:47.662Z,21824
2016-05-28T12:02:49.712Z,27616
2016-05-28T12:03:47.167Z,19424
2016-05-28T12:04:47.687Z,2984
2016-05-28T12:05:49.470Z,2664
2016-05-28T12:06:49.253Z,3144
2016-05-28T12:07:51.085Z,4584
2016-05-28T12:09:01.024Z,4800
2016-05-28T12:09:47.137Z,4364
2016-05-28T12:10:47.640Z,2188
2016-05-28T12:11:47.002Z,2328
2016-05-28T12:12:48.504Z,2904
2016-05-28T12:13:47.648Z,3316
2016-05-28T12:14:47.556Z,3132
2016-05-28T12:16:00.825Z,2808
2016-05-28T12:16:47.483Z,2132
2016-05-28T12:17:49.533Z,2096
2016-05-28T12:18:47.271Z,2076
2016-05-28T12:19:48.070Z,2128
2016-05-28T12:20:47.182Z,2316
2016-05-28T12:21:47.357Z,2420
2016-05-28T12:22:51.234Z,2544
2016-05-28T12:24:01.737Z,2368
2016-05-28T12:24:47.146Z,2352
2016-05-28T12:25:47.274Z,2276
2016-05-28T12:26:47.354Z,2260
2016-05-28T12:27:47.873Z,2300
2016-05-28T12:28:47.468Z,2280
2016-05-28T12:30:00.879Z,2244
2016-05-28T12:30:46.974Z,2212
2016-05-28T12:31:47.055Z,2028
2016-05-28T12:32:49.854Z,2000
2016-05-28T12:33:48.264Z,2124
2016-05-28T12:34:47.689Z,2120
2016-05-28T12:35:47.128Z,2100
2016-05-28T12:36:47.070Z,2216
2016-05-28T12:37:50.978Z,2168
2016-05-28T12:38:47.856Z,2108
2016-05-28T12:39:47.890Z,2028
2016-05-28T12:40:47.548Z,1960
2016-05-28T12:41:46.723Z,1940
2016-05-28T12:42:50.725Z,1996
2016-05-28T12:43:46.806Z,2108
2016-05-28T12:44:49.778Z,2200
2016-05-28T12:45:47.389Z,2300
2016-05-28T12:46:47.612Z,2460
2016-05-28T12:47:46.708Z,2568
2016-05-28T12:48:46.804Z,2668
2016-05-28T12:49:46.838Z,2804
2016-05-28T12:50:47.450Z,2908
2016-05-28T12:51:46.593Z,2900
2016-05-28T12:52:47.346Z,2868
2016-05-28T12:53:49.943Z,2048
2016-05-28T12:54:47.585Z,1880
2016-05-28T12:55:50.901Z,2100
2016-05-28T12:56:46.826Z,1660
2016-05-28T12:57:47.203Z,1400
2016-05-28T12:58:46.549Z,1056
2016-05-28T12:59:46.444Z,1648
2016-05-28T13:00:46.665Z,2544
2016-05-28T13:01:47.136Z,2880
2016-05-28T13:02:47.483Z,2892
2016-05-28T13:03:46.876Z,2836
2016-05-28T13:04:47.160Z,2648
2016-05-28T13:05:46.897Z,2600
2016-05-28T13:06:47.275Z,2776
2016-05-28T13:07:49.293Z,2716
2016-05-28T13:08:46.015Z,2904
2016-05-28T13:09:48.189Z,2836
2016-05-28T13:10:46.347Z,2576
2016-05-28T13:11:46.147Z,2684
2016-05-28T13:12:46.572Z,2616
2016-05-28T13:18:36.713Z,4580
2016-05-28T13:18:56.666Z,5020
2016-05-28T13:20:10.215Z,4336
2016-05-28T13:20:55.641Z,6960
2016-05-28T13:21:56.986Z,13616
2016-05-28T13:22:56.599Z,11064
2016-05-28T13:23:55.367Z,17760
2016-05-28T13:24:55.963Z,18720
2016-05-28T13:26:55.938Z,17440
2016-05-28T13:27:56.377Z,20224
2016-05-28T13:29:09.194Z,22848
2016-05-28T13:30:23.152Z,8148
2016-05-28T13:31:09.121Z,5092
2016-05-28T13:32:55.563Z,3928
2016-05-28T13:33:55.207Z,3564
2016-05-28T13:34:55.413Z,3168
2016-05-28T13:36:55.402Z,3556
2016-05-28T13:37:55.624Z,3552
2016-05-28T13:39:09.298Z,3376
2016-05-28T13:40:09.598Z,3456
2016-05-28T13:41:09.194Z,2828
2016-05-28T13:41:57.400Z,4232
2016-05-28T13:43:09.215Z,4196
2016-05-28T13:43:57.203Z,4396
2016-05-28T13:44:56.080Z,12332
2016-05-28T13:45:55.145Z,25568
2016-05-28T13:46:55.241Z,36224
2016-05-28T13:47:55.666Z,23680
2016-05-28T13:48:55.200Z,23168
2016-05-28T13:49:55.452Z,6004
2016-05-28T13:50:55.237Z,16224
2016-05-28T13:52:56.461Z,9136
2016-05-28T13:53:55.760Z,12820
2016-05-28T13:54:55.888Z,6164
2016-05-28T13:55:55.375Z,8040
2016-05-28T13:56:55.113Z,18272
2016-05-28T13:58:08.708Z,21152
2016-05-28T13:58:58.040Z,20640
2016-05-28T13:59:55.010Z,15168
2016-05-28T14:00:55.841Z,20448
2016-05-28T14:02:08.735Z,23200
2016-05-28T14:03:08.738Z,24384